Aérodrome :
LOGIN :

S'inscrire | Disclaimer

   EN    FR    IT 

 










Légende :    VFR   VFR Marginal   IFR   IFR Intensif   IFR Très Intensif
Visi : 
Plafond : 
>= 8 km
>= 3000ft
5 à 8 km
1000 à 3000 ft
1500m à 5 km
500 à 1000 ft
800 à 1500m
200 à 500 ft
< 800m
< 200 ft
Symboles :   Orages  Brouillard  Fortes neiges  Fortes précipitations  Vent > 20 kt
SIGMETs :   Divers  Orages  Givrage  Turbulence  Onde Orograph.  Cendres Volcan.







- Altitude de l'aérodrome : 121 ft
- Code IATA : HUY
- Voir les cartes d'approche


EGNJ - Humberside

DERNIER METAR :
  • 212350Z AUTO 16008KT 9999 NCD 10/03 Q1014

METARs EXPIRÉS :
  • 212320Z AUTO 16009KT 9999 NCD 10/04 Q1014
  • 212250Z AUTO 15010KT 9999 NCD 11/04 Q1014
  • 212220Z AUTO 15011KT 9999 NCD 10/04 Q1014
  • 212150Z AUTO 12009KT 9999 NCD 11/04 Q1014
  • 212120Z AUTO 13011KT 9999 NCD 10/04 Q1015

TAF TAF EGNJ
Valide du 22 à 00h jusqu'au 22 à 09h UTC


212257Z 2200/2209 11007KT CAVOK
BECMG 2202/2205 7000
PROB30 2203/2207 3000 BR MIFG
BECMG 2207/2209 CAVOK
ATIS : +44 1652 682 020
Pas de NOTAMs connus pour ce terrain.



MET'MAP, la Météo Aéronautique d'un coup d'oeil ! - Copyright ORBIFLY Décembre 2007 - Disclaimer

ORBIFLY MET'MAP TEAM :

Programmation & Développement : Alexandra Zaïnal
Conception & Développement : Baudouin d'Aumeries
Co-Programmation & Développement : Marc-Olivier Méhu
Soutien technique & logistique : Manuel Goepfert

Contact : metmap@orbifly.com




SOURCES & CREDITS :

   NOAA